createdAt,value
2023-04-27T00:01:25.101Z,91.70
2023-04-27T00:06:29.102Z,14.70
2023-04-27T00:11:31.781Z,36.50
2023-04-27T00:16:34.479Z,1.00
2023-04-27T00:21:38.541Z,11.40
2023-04-27T00:26:41.565Z,1.00
2023-04-27T00:31:44.298Z,1.00
2023-04-27T00:36:48.290Z,99.90
2023-04-27T00:41:51.081Z,99.90
2023-04-27T00:46:54.508Z,99.90
2023-04-27T00:51:58.614Z,99.90
2023-04-27T00:57:02.264Z,99.90
2023-04-27T01:02:05.090Z,99.90
2023-04-27T01:07:09.160Z,1.90
2023-04-27T01:12:11.802Z,99.90
2023-04-27T01:17:15.003Z,99.90
2023-04-27T01:22:19.044Z,1.00
2023-04-27T01:27:23.052Z,1.00
2023-04-27T01:32:25.965Z,1.00
2023-04-27T01:37:28.640Z,1.00
2023-04-27T01:42:32.648Z,1.00
2023-04-27T01:47:35.348Z,1.00
2023-04-27T01:52:38.016Z,1.00
2023-04-27T01:57:41.959Z,1.00
2023-04-27T02:02:45.382Z,14.70
2023-04-27T02:07:48.148Z,99.90
2023-04-27T02:12:52.153Z,48.80
2023-04-27T02:17:55.007Z,78.90
2023-04-27T02:22:57.871Z,93.80
2023-04-27T02:28:01.833Z,99.90
2023-04-27T02:33:05.084Z,99.90
2023-04-27T02:38:07.870Z,99.90
2023-04-27T02:43:11.952Z,99.90
2023-04-27T02:48:14.843Z,99.90
2023-04-27T02:53:17.509Z,99.90
2023-04-27T02:58:22.594Z,99.90
2023-04-27T03:03:25.732Z,99.90
2023-04-27T03:08:28.576Z,99.90
2023-04-27T03:13:38.492Z,99.90
2023-04-27T03:18:41.522Z,99.90
2023-04-27T03:23:44.321Z,99.90
2023-04-27T03:28:48.643Z,99.90
2023-04-27T03:33:51.380Z,99.90
2023-04-27T03:38:54.287Z,99.90
2023-04-27T03:43:58.309Z,99.90
2023-04-27T03:49:00.970Z,99.90
2023-04-27T03:54:03.695Z,99.90
2023-04-27T03:59:07.690Z,99.90
2023-04-27T04:04:10.496Z,99.90
2023-04-27T04:09:13.701Z,99.90
2023-04-27T04:14:17.867Z,99.90
2023-04-27T04:19:21.946Z,73.60
2023-04-27T04:24:25.055Z,4.60
2023-04-27T04:29:29.091Z,25.80
2023-04-27T04:34:32.033Z,1.00
2023-04-27T04:39:34.883Z,1.00
2023-04-27T04:44:38.915Z,1.00
2023-04-27T04:49:41.612Z,1.00
2023-04-27T04:54:44.306Z,1.00
2023-04-27T04:59:48.376Z,1.00
2023-04-27T05:04:52.210Z,1.00
2023-04-27T05:09:55.295Z,1.00
2023-04-27T05:14:59.447Z,1.00
2023-04-27T05:20:02.079Z,1.00
2023-04-27T05:25:05.271Z,1.00
2023-04-27T05:30:11.100Z,1.00
2023-04-27T05:35:13.901Z,1.00
2023-04-27T05:40:16.787Z,1.00
2023-04-27T05:45:20.981Z,1.00
2023-04-27T05:50:23.868Z,99.90
2023-04-27T05:55:26.607Z,1.00
2023-04-27T06:00:30.734Z,99.90
2023-04-27T06:05:34.351Z,1.00
2023-04-27T06:10:37.330Z,1.00
2023-04-27T06:15:41.322Z,1.00
2023-04-27T06:20:44.091Z,1.00
2023-04-27T06:25:46.753Z,1.00
2023-04-27T06:30:50.795Z,99.90
2023-04-27T06:35:53.466Z,99.90
2023-04-27T06:40:56.335Z,99.90
2023-04-27T06:46:00.588Z,99.90
2023-04-27T06:51:03.301Z,1.00
2023-04-27T06:56:07.101Z,1.00
2023-04-27T07:01:11.215Z,53.40
2023-04-27T07:06:13.912Z,1.00
2023-04-27T07:11:16.606Z,99.90
2023-04-27T07:16:20.915Z,1.00
2023-04-27T07:21:23.647Z,1.00
2023-04-27T07:26:26.991Z,99.90
2023-04-27T07:31:31.738Z,99.90
2023-04-27T07:36:34.573Z,99.90
2023-04-27T07:41:37.312Z,99.90
2023-04-27T07:46:41.356Z,64.20
2023-04-27T07:51:44.044Z,27.50
2023-04-27T07:56:46.890Z,1.00
2023-04-27T08:01:51.104Z,1.00
2023-04-27T08:06:54.310Z,1.00
2023-04-27T08:11:58.783Z,1.00
2023-04-27T08:17:03.067Z,1.00
2023-04-27T08:22:05.866Z,1.00
2023-04-27T08:27:09.346Z,1.00
2023-04-27T08:32:13.324Z,1.00
2023-04-27T08:37:16.007Z,1.00
2023-04-27T08:42:18.736Z,1.00
2023-04-27T08:47:31.379Z,1.00
2023-04-27T08:52:45.408Z,1.00
2023-04-27T08:57:58.368Z,1.00
2023-04-27T09:03:04.245Z,1.00
2023-04-27T09:08:09.082Z,1.00
2023-04-27T09:13:11.772Z,99.90
2023-04-27T09:18:19.166Z,99.90
2023-04-27T09:23:27.853Z,99.90
2023-04-27T09:28:32.675Z,99.90
2023-04-27T09:33:37.255Z,99.90
2023-04-27T09:38:40.819Z,99.90
2023-04-27T09:43:45.687Z,99.90
2023-04-27T09:48:51.499Z,99.90
2023-04-27T09:53:58.386Z,99.90
2023-04-27T09:59:16.776Z,99.90
2023-04-27T10:04:40.001Z,99.90
2023-04-27T10:09:44.664Z,99.90
2023-04-27T10:14:54.523Z,99.90
2023-04-27T10:20:00.400Z,99.90
2023-04-27T10:25:15.365Z,99.90
2023-04-27T10:30:20.462Z,99.90
2023-04-27T10:35:33.950Z,99.90
2023-04-27T10:40:37.503Z,99.90
2023-04-27T10:45:41.001Z,99.90
2023-04-27T10:50:46.718Z,99.90
2023-04-27T10:55:55.508Z,99.90
2023-04-27T11:00:58.180Z,99.90
2023-04-27T11:06:04.281Z,99.90
2023-04-27T11:11:07.020Z,99.90
2023-04-27T11:16:09.776Z,99.90
2023-04-27T11:21:15.913Z,99.90
2023-04-27T11:26:22.388Z,99.90
2023-04-27T11:31:25.382Z,99.90
2023-04-27T11:36:29.503Z,99.90
2023-04-27T11:41:35.716Z,99.90
2023-04-27T11:46:38.949Z,99.90
2023-04-27T11:51:45.001Z,99.90
2023-04-27T11:56:47.674Z,99.90
2023-04-27T12:01:52.097Z,99.90
2023-04-27T12:06:56.078Z,99.90
2023-04-27T12:11:59.083Z,99.90
2023-04-27T12:17:02.059Z,99.90
2023-04-27T12:22:06.204Z,99.90
2023-04-27T12:27:09.204Z,99.90
2023-04-27T12:32:11.825Z,99.90
2023-04-27T12:37:15.799Z,99.90
2023-04-27T12:42:23.463Z,99.90
2023-04-27T12:47:46.028Z,99.90
2023-04-27T12:52:50.503Z,99.90
2023-04-27T12:57:53.251Z,99.90
2023-04-27T13:02:56.594Z,99.90
2023-04-27T13:08:00.924Z,99.90
2023-04-27T13:13:04.226Z,99.90
2023-04-27T13:18:07.150Z,99.90
2023-04-27T13:23:11.747Z,99.90
2023-04-27T13:28:14.459Z,99.90
2023-04-27T13:33:23.194Z,99.90
2023-04-27T13:38:27.754Z,99.90
2023-04-27T13:43:31.040Z,99.90
2023-04-27T13:48:33.686Z,99.90
2023-04-27T13:53:37.677Z,99.90
2023-04-27T13:58:41.535Z,99.90
2023-04-27T14:03:44.381Z,99.90
2023-04-27T14:08:48.461Z,99.90
2023-04-27T14:13:51.254Z,99.90
2023-04-27T14:18:54.086Z,99.90
2023-04-27T14:23:58.066Z,99.90
2023-04-27T14:29:00.771Z,99.90
2023-04-27T14:34:03.612Z,99.90
2023-04-27T14:39:09.357Z,99.90
2023-04-27T14:44:13.142Z,99.90
2023-04-27T14:49:16.081Z,99.90
2023-04-27T14:54:20.247Z,99.90
2023-04-27T14:59:23.247Z,99.90
2023-04-27T15:04:26.658Z,99.90
2023-04-27T15:09:31.043Z,99.90
2023-04-27T15:14:34.114Z,99.90
2023-04-27T15:19:36.797Z,99.90
2023-04-27T15:24:40.781Z,99.90
2023-04-27T15:29:43.632Z,99.90
2023-04-27T15:34:46.912Z,99.90
2023-04-27T15:39:52.300Z,99.90
2023-04-27T15:44:54.960Z,99.90
2023-04-27T15:49:58.354Z,99.90
2023-04-27T15:55:04.195Z,99.90
2023-04-27T16:00:12.431Z,99.90
2023-04-27T16:05:16.256Z,99.90
2023-04-27T16:10:20.290Z,99.90
2023-04-27T16:15:22.956Z,99.90
2023-04-27T16:20:28.858Z,99.90
2023-04-27T16:25:32.856Z,99.90
2023-04-27T16:30:35.604Z,99.90
2023-04-27T16:35:38.257Z,99.90
2023-04-27T16:40:42.251Z,99.90
2023-04-27T16:45:44.929Z,99.90
2023-04-27T16:50:47.973Z,99.90
2023-04-27T16:55:52.002Z,99.90
2023-04-27T17:00:54.814Z,99.90
2023-04-27T17:05:57.568Z,99.90
2023-04-27T17:11:01.542Z,99.90
2023-04-27T17:16:05.441Z,99.90
2023-04-27T17:21:08.148Z,99.90
2023-04-27T17:26:12.341Z,99.90
2023-04-27T17:31:15.174Z,99.90
2023-04-27T17:36:17.913Z,99.90
2023-04-27T17:41:22.244Z,99.90
2023-04-27T17:46:25.284Z,99.90
2023-04-27T17:51:27.975Z,99.90
2023-04-27T17:56:32.439Z,99.90
2023-04-27T18:01:35.262Z,99.90
2023-04-27T18:06:37.980Z,99.90
2023-04-27T18:11:42.153Z,99.90
2023-04-27T18:16:45.234Z,99.90
2023-04-27T18:21:53.280Z,99.90
2023-04-27T18:26:57.856Z,99.90
2023-04-27T18:32:05.422Z,99.90
2023-04-27T18:37:08.202Z,99.90
2023-04-27T18:42:12.461Z,1.00
2023-04-27T18:47:15.528Z,1.00
2023-04-27T18:52:18.204Z,1.00
2023-04-27T18:57:22.204Z,1.00
2023-04-27T19:02:25.871Z,1.00
2023-04-27T19:07:29.172Z,1.00
2023-04-27T19:12:33.299Z,1.00
2023-04-27T19:17:36.029Z,1.00
2023-04-27T19:22:38.978Z,1.00
2023-04-27T19:27:42.987Z,1.00
2023-04-27T19:32:45.783Z,1.00
2023-04-27T19:37:49.250Z,1.00
2023-04-27T19:42:53.248Z,1.00
2023-04-27T19:47:56.478Z,1.00
2023-04-27T19:52:59.170Z,1.00
2023-04-27T19:58:03.156Z,1.00
2023-04-27T20:03:06.596Z,94.60
2023-04-27T20:08:09.374Z,99.90
2023-04-27T20:13:13.493Z,1.00
2023-04-27T20:18:16.334Z,1.00
2023-04-27T20:23:19.246Z,1.00
2023-04-27T20:28:23.229Z,1.00
2023-04-27T20:33:26.015Z,1.00
2023-04-27T20:38:28.678Z,1.00
2023-04-27T20:43:32.732Z,1.00
2023-04-27T20:48:35.495Z,1.00
2023-04-27T20:53:38.316Z,1.00
2023-04-27T20:58:42.264Z,99.90
2023-04-27T21:03:46.570Z,99.90
2023-04-27T21:08:49.443Z,1.00
2023-04-27T21:13:53.679Z,1.00
2023-04-27T21:18:56.369Z,1.00
2023-04-27T21:24:07.308Z,1.00
2023-04-27T21:29:12.341Z,1.00
2023-04-27T21:34:15.427Z,1.00
2023-04-27T21:39:18.235Z,1.00
2023-04-27T21:44:22.233Z,99.90
2023-04-27T21:49:24.918Z,1.00
2023-04-27T21:54:27.620Z,1.00
2023-04-27T21:59:31.687Z,1.00
2023-04-27T22:04:35.835Z,1.00
2023-04-27T22:09:38.896Z,99.90
2023-04-27T22:14:43.065Z,1.00
2023-04-27T22:19:45.729Z,1.00
2023-04-27T22:24:48.599Z,99.90
2023-04-27T22:29:52.676Z,1.00
2023-04-27T22:34:55.558Z,1.00
2023-04-27T22:39:58.467Z,1.00
2023-04-27T22:45:02.516Z,1.00
2023-04-27T22:50:06.066Z,62.40
2023-04-27T22:55:09.671Z,1.00
2023-04-27T23:00:15.269Z,99.90
2023-04-27T23:05:18.061Z,99.90
2023-04-27T23:10:20.770Z,99.90
2023-04-27T23:15:24.878Z,1.00
2023-04-27T23:20:29.067Z,99.90
2023-04-27T23:25:33.209Z,99.90
2023-04-27T23:30:37.280Z,1.00
2023-04-27T23:35:39.970Z,1.00
2023-04-27T23:40:42.650Z,99.90
2023-04-27T23:45:51.617Z,11.20
2023-04-27T23:51:00.408Z,1.00
2023-04-27T23:56:03.090Z,1.00
